Lake Tahoe, CA

12:06 AM PDT on October 21, 2014 (GMT -0700)
Placerville | Change Station
CLOSE
Current Station
Airport
Location: Placerville,
Elevation: 2582 ft
Nearby Weather Stations

Elev 2582 ft 38.72 °N, 120.75 °W | Updated 11 minutes ago

Overcast
Overcast
48 °F
Feels Like 48 °F
N
5
Wind Variable Wind from South

Today
High -- | Low -- °F
--% Chance of Precip.
Yesterday
High -- | Low -- °F
Precip. -- in
7:15 AM 6:12 PM
Waning Crescent, 7% visible
Pressure 30.09 in
Visibility 10.0 miles
Clouds Few 1200 ft
Scattered Clouds 3800 ft
Dew Point 48 °F
Humidity 100%
Rainfall 0.05 in
Snow Depth Not available.
UV 0 out of 12
Pollen 2.70 out of 12
Air Quality Not available.
Flu Activity Sporadic
METAR KPVF 210655Z AUTO 17004KT 10SM FEW012 SCT038 09/09 A3009 RMK AO1

More Conditions Fewer Conditions

Pressure 30.09 in
Visibility 10.0 miles
Clouds Few 1200 ft
Scattered Clouds 3800 ft
Dew Point 48 °F
Humidity 100%
Rainfall 0.05 in
Snow Depth Not available.
UV 0 out of 12
Pollen 2.70 out of 12
Air Quality Not available.
Flu Activity Sporadic
METAR KPVF 210655Z AUTO 17004KT 10SM FEW012 SCT038 09/09 A3009 RMK AO1

More Conditions Fewer Conditions

10-Day Weather Forecast

Almanac

Astronomy

Oct. 21, 2014 Rise Set
Actual Time 7:15 AM PDT 6:12 PM PDT
Civil Twilight 6:48 AM PDT 6:40 PM PDT
Nautical Twilight 6:17 AM PDT 7:11 PM PDT
Astronomical Twilight 5:46 AM PDT 7:41 PM PDT
Moon 5:05 AM PDT 5:08 PM PDT
Length of Visible Light 11h 51m
Length of Day
10h 57m
Tomorrow will be 2m 22s shorter.
Waning Crescent, 7% of the Moon is Illuminated
Today
Waning Crescent
Oct 23
New
Oct 30
First Quarter
Nov 6
Full
Nov 14
Last Quarter

Community

WunderPhotos

Upload Photos

1,763,619 photos uploaded!

Nearby

Snow Depth

Station Depth Elevation
Fallen Leaf 0 in 6300 ft
Hagan's Meadow 0 in 8000 ft
Echo Peak 1 in 7800 ft
Heavenly Valley 0 in 8850 ft
Rubicon #2 1 in 7500 ft

Earthquake Activity

City Distance Mag. Time & Date
Mammoth Lakes, California 118 miles 3.0 11:10 PM PDT
2014-10-20
Dixon Lane-Meadow Creek, California 124 miles 2.6 5:32 PM PDT
2014-10-18
Smith Valley, Nevada 32 miles 2.9 10:59 AM PDT
2014-10-18
East Foothills, California 141 miles 2.6 8:16 AM PDT
2014-10-18
Minimum magnitude displayed is 2.5.

Coastal Water Temperatures

Place Temperature
No Stations Reporting

Nearby Weather Stations